Strona główna
METAR-TAF:

METAR-TAF

Lotnisko :

Port lotniczy Grenchen

Grenchen, Szwajcaria

Szerokość geograficzna: 47-10-53N, Długość geograficzna: 007-24-59E, wysokość: 430 m

Aktualna obserwacja pogody

Raport powstał 41 minut temu, godzina 10:20 UTC
Wiatr 6 kt od zachodnio-południowy zachód, zmienny między południowo-południowy zachód i zachód
Temperatura 24°C
Wilgotność 38%
Ciśnienie 1015 hPa
Widzialność 10 km lub więcej
Mało chmury na wysokości 6000 ft

METAR: LSZG 181020Z 24006KT 200V270 9999 FEW060 24/09 Q1015 NOSIG

czas: 13:01 (11:01 UTC)

Prognoza

Raport powstał 2 godziny i 36 minut temu, godzina 08:25 UTC
Prognoza ważna od 18 godzina 09 UTC do 18 godzina 18 UTC
Wiatr 3 kt z kierunków zmiennych
Widzialność 10 km lub więcej
Brak chmur poniżej 1500 m i brak chmur cumulonimbus
Prawdopodobieństwo 40%
od 18 godzina 14 UTC do 18 godzina 17 UTC
Wiatr 7 kt od wschodnio-północny wschód

TAF: LSZG 180825Z 1809/1818 VRB03KT CAVOK PROB40 1814/1817 06007KT

Obserwacja i prognoza pogody dla ponad 4000 lotnisk (raport METAR i TAF).

Dostępne stacje oznaczono żółtymi i czerwonymi punktami na mapie.

Najedź kursorem aby zobaczyć nazwę stacji.

Kliknij aby zobaczyć obserwacje i prognozy pogody.

Aby zmienić mapę: kliknij na zielony przycisk z czarnym krzyżykiem, aby powiększyć; na zielony przycisk z myślnikiem, aby pomniejszyć; na zielone strzałki, aby przejść do map sąsiednich.


METAR-TAF: